sensor_id;sensor_type;location;lat;lon;timestamp;P1;durP1;ratioP1;P2;durP2;ratioP2
25962;SDS011;13760;52.588;13.406;2023-08-08T00:00:04;8.68;;;2.80;;
25962;SDS011;13760;52.588;13.406;2023-08-08T00:02:30;6.20;;;2.20;;
25962;SDS011;13760;52.588;13.406;2023-08-08T00:04:56;8.23;;;2.70;;
25962;SDS011;13760;52.588;13.406;2023-08-08T00:07:21;9.60;;;2.75;;
25962;SDS011;13760;52.588;13.406;2023-08-08T00:09:47;5.65;;;2.35;;
25962;SDS011;13760;52.588;13.406;2023-08-08T00:12:12;8.80;;;2.70;;
25962;SDS011;13760;52.588;13.406;2023-08-08T00:14:38;7.72;;;2.40;;
25962;SDS011;13760;52.588;13.406;2023-08-08T00:17:04;9.25;;;2.70;;
25962;SDS011;13760;52.588;13.406;2023-08-08T00:19:29;7.60;;;2.40;;
25962;SDS011;13760;52.588;13.406;2023-08-08T00:21:55;8.60;;;2.83;;
25962;SDS011;13760;52.588;13.406;2023-08-08T00:24:20;6.47;;;2.55;;
25962;SDS011;13760;52.588;13.406;2023-08-08T00:26:46;7.95;;;2.40;;
25962;SDS011;13760;52.588;13.406;2023-08-08T00:29:11;5.43;;;2.10;;
25962;SDS011;13760;52.588;13.406;2023-08-08T00:31:37;6.47;;;2.17;;
25962;SDS011;13760;52.588;13.406;2023-08-08T00:34:02;7.13;;;2.13;;
25962;SDS011;13760;52.588;13.406;2023-08-08T00:36:28;9.00;;;2.50;;
25962;SDS011;13760;52.588;13.406;2023-08-08T00:38:53;7.68;;;2.30;;
25962;SDS011;13760;52.588;13.406;2023-08-08T00:41:19;6.95;;;2.50;;
25962;SDS011;13760;52.588;13.406;2023-08-08T00:43:44;7.38;;;2.40;;
25962;SDS011;13760;52.588;13.406;2023-08-08T00:46:10;7.20;;;2.50;;
25962;SDS011;13760;52.588;13.406;2023-08-08T00:48:36;8.63;;;2.42;;
25962;SDS011;13760;52.588;13.406;2023-08-08T00:51:02;4.05;;;2.10;;
25962;SDS011;13760;52.588;13.406;2023-08-08T00:53:28;8.18;;;2.50;;
25962;SDS011;13760;52.588;13.406;2023-08-08T00:55:56;8.88;;;2.70;;
25962;SDS011;13760;52.588;13.406;2023-08-08T00:58:23;9.38;;;2.38;;
25962;SDS011;13760;52.588;13.406;2023-08-08T01:00:50;7.30;;;2.47;;
25962;SDS011;13760;52.588;13.406;2023-08-08T01:03:17;4.78;;;2.20;;
25962;SDS011;13760;52.588;13.406;2023-08-08T01:05:51;5.63;;;2.38;;
25962;SDS011;13760;52.588;13.406;2023-08-08T01:08:26;6.05;;;2.38;;
25962;SDS011;13760;52.588;13.406;2023-08-08T01:10:58;7.75;;;2.38;;
25962;SDS011;13760;52.588;13.406;2023-08-08T01:13:24;7.63;;;2.17;;
25962;SDS011;13760;52.588;13.406;2023-08-08T01:15:51;5.47;;;2.47;;
25962;SDS011;13760;52.588;13.406;2023-08-08T01:18:19;6.75;;;2.50;;
25962;SDS011;13760;52.588;13.406;2023-08-08T01:20:45;4.63;;;1.95;;
25962;SDS011;13760;52.588;13.406;2023-08-08T01:23:24;6.63;;;2.20;;
25962;SDS011;13760;52.588;13.406;2023-08-08T01:25:55;7.22;;;1.80;;
25962;SDS011;13760;52.588;13.406;2023-08-08T01:28:23;6.32;;;2.30;;
25962;SDS011;13760;52.588;13.406;2023-08-08T01:30:49;5.28;;;1.80;;
25962;SDS011;13760;52.588;13.406;2023-08-08T01:33:15;5.28;;;1.98;;
25962;SDS011;13760;52.588;13.406;2023-08-08T01:35:43;4.82;;;1.95;;
25962;SDS011;13760;52.588;13.406;2023-08-08T01:38:17;7.32;;;2.17;;
25962;SDS011;13760;52.588;13.406;2023-08-08T01:40:48;5.60;;;1.98;;
25962;SDS011;13760;52.588;13.406;2023-08-08T01:43:14;7.57;;;2.20;;
25962;SDS011;13760;52.588;13.406;2023-08-08T01:45:40;6.72;;;2.10;;
25962;SDS011;13760;52.588;13.406;2023-08-08T01:48:07;5.13;;;1.90;;
25962;SDS011;13760;52.588;13.406;2023-08-08T01:50:34;7.53;;;1.90;;
25962;SDS011;13760;52.588;13.406;2023-08-08T01:53:00;5.38;;;2.20;;
25962;SDS011;13760;52.588;13.406;2023-08-08T01:55:25;4.07;;;1.50;;
25962;SDS011;13760;52.588;13.406;2023-08-08T01:57:51;6.03;;;1.73;;
25962;SDS011;13760;52.588;13.406;2023-08-08T02:00:16;3.75;;;1.80;;
25962;SDS011;13760;52.588;13.406;2023-08-08T02:02:42;7.03;;;2.10;;
25962;SDS011;13760;52.588;13.406;2023-08-08T02:05:08;3.35;;;1.75;;
25962;SDS011;13760;52.588;13.406;2023-08-08T02:07:33;4.80;;;1.80;;
25962;SDS011;13760;52.588;13.406;2023-08-08T02:09:59;4.95;;;1.80;;
25962;SDS011;13760;52.588;13.406;2023-08-08T02:12:24;6.30;;;1.98;;
25962;SDS011;13760;52.588;13.406;2023-08-08T02:14:50;6.72;;;2.00;;
25962;SDS011;13760;52.588;13.406;2023-08-08T02:17:15;7.18;;;2.00;;
25962;SDS011;13760;52.588;13.406;2023-08-08T02:19:41;6.50;;;1.65;;
25962;SDS011;13760;52.588;13.406;2023-08-08T02:22:06;5.32;;;1.92;;
25962;SDS011;13760;52.588;13.406;2023-08-08T02:24:32;4.38;;;1.95;;
25962;SDS011;13760;52.588;13.406;2023-08-08T02:26:57;2.63;;;1.63;;
25962;SDS011;13760;52.588;13.406;2023-08-08T02:29:23;8.90;;;1.70;;
25962;SDS011;13760;52.588;13.406;2023-08-08T02:31:49;4.40;;;1.77;;
25962;SDS011;13760;52.588;13.406;2023-08-08T02:34:14;3.78;;;1.77;;
25962;SDS011;13760;52.588;13.406;2023-08-08T02:36:40;5.55;;;1.92;;
25962;SDS011;13760;52.588;13.406;2023-08-08T02:39:05;5.03;;;2.10;;
25962;SDS011;13760;52.588;13.406;2023-08-08T02:41:31;3.92;;;1.90;;
25962;SDS011;13760;52.588;13.406;2023-08-08T02:43:56;3.67;;;2.08;;
25962;SDS011;13760;52.588;13.406;2023-08-08T02:46:22;6.90;;;2.10;;
25962;SDS011;13760;52.588;13.406;2023-08-08T02:48:47;3.92;;;1.90;;
25962;SDS011;13760;52.588;13.406;2023-08-08T02:51:13;5.75;;;2.50;;
25962;SDS011;13760;52.588;13.406;2023-08-08T02:53:38;5.93;;;2.15;;
25962;SDS011;13760;52.588;13.406;2023-08-08T02:56:04;7.15;;;2.38;;
25962;SDS011;13760;52.588;13.406;2023-08-08T02:58:30;5.47;;;2.60;;
25962;SDS011;13760;52.588;13.406;2023-08-08T03:00:55;6.47;;;2.55;;
25962;SDS011;13760;52.588;13.406;2023-08-08T03:03:21;10.15;;;2.47;;
25962;SDS011;13760;52.588;13.406;2023-08-08T03:05:46;5.55;;;2.08;;
25962;SDS011;13760;52.588;13.406;2023-08-08T03:08:12;5.68;;;2.30;;
25962;SDS011;13760;52.588;13.406;2023-08-08T03:10:37;5.00;;;2.20;;
25962;SDS011;13760;52.588;13.406;2023-08-08T03:13:03;9.98;;;2.28;;
25962;SDS011;13760;52.588;13.406;2023-08-08T03:15:28;7.70;;;2.22;;
25962;SDS011;13760;52.588;13.406;2023-08-08T03:17:54;7.35;;;2.63;;
25962;SDS011;13760;52.588;13.406;2023-08-08T03:20:20;10.82;;;2.38;;
25962;SDS011;13760;52.588;13.406;2023-08-08T03:22:46;5.32;;;2.53;;
25962;SDS011;13760;52.588;13.406;2023-08-08T03:25:11;6.68;;;2.35;;
25962;SDS011;13760;52.588;13.406;2023-08-08T03:27:37;6.82;;;2.70;;
25962;SDS011;13760;52.588;13.406;2023-08-08T03:30:02;4.07;;;2.22;;
25962;SDS011;13760;52.588;13.406;2023-08-08T03:32:28;8.25;;;2.50;;
25962;SDS011;13760;52.588;13.406;2023-08-08T03:34:54;6.63;;;3.13;;
25962;SDS011;13760;52.588;13.406;2023-08-08T03:37:19;7.32;;;2.50;;
25962;SDS011;13760;52.588;13.406;2023-08-08T03:39:45;8.48;;;2.83;;
25962;SDS011;13760;52.588;13.406;2023-08-08T03:42:10;6.20;;;2.58;;
25962;SDS011;13760;52.588;13.406;2023-08-08T03:44:36;6.40;;;2.40;;
25962;SDS011;13760;52.588;13.406;2023-08-08T03:47:01;6.88;;;2.85;;
25962;SDS011;13760;52.588;13.406;2023-08-08T03:49:27;4.43;;;2.70;;
25962;SDS011;13760;52.588;13.406;2023-08-08T03:51:53;5.68;;;2.55;;
25962;SDS011;13760;52.588;13.406;2023-08-08T03:54:18;6.47;;;2.70;;
25962;SDS011;13760;52.588;13.406;2023-08-08T03:56:44;6.57;;;2.60;;
25962;SDS011;13760;52.588;13.406;2023-08-08T03:59:09;6.47;;;2.63;;
25962;SDS011;13760;52.588;13.406;2023-08-08T04:01:35;8.57;;;2.85;;
25962;SDS011;13760;52.588;13.406;2023-08-08T04:04:02;5.43;;;2.67;;
25962;SDS011;13760;52.588;13.406;2023-08-08T04:06:29;5.75;;;2.70;;
25962;SDS011;13760;52.588;13.406;2023-08-08T04:08:54;8.65;;;2.70;;
25962;SDS011;13760;52.588;13.406;2023-08-08T04:11:20;6.97;;;2.97;;
25962;SDS011;13760;52.588;13.406;2023-08-08T04:13:46;9.30;;;2.58;;
25962;SDS011;13760;52.588;13.406;2023-08-08T04:16:11;10.80;;;2.63;;
25962;SDS011;13760;52.588;13.406;2023-08-08T04:18:37;4.95;;;2.45;;
25962;SDS011;13760;52.588;13.406;2023-08-08T04:21:02;6.65;;;2.78;;
25962;SDS011;13760;52.588;13.406;2023-08-08T04:23:28;7.50;;;2.50;;
25962;SDS011;13760;52.588;13.406;2023-08-08T04:25:54;8.05;;;2.60;;
25962;SDS011;13760;52.588;13.406;2023-08-08T04:28:19;9.40;;;2.60;;
25962;SDS011;13760;52.588;13.406;2023-08-08T04:30:45;9.73;;;3.30;;
25962;SDS011;13760;52.588;13.406;2023-08-08T04:33:11;4.82;;;2.58;;
25962;SDS011;13760;52.588;13.406;2023-08-08T04:35:36;7.70;;;2.60;;
25962;SDS011;13760;52.588;13.406;2023-08-08T04:38:02;8.90;;;2.78;;
25962;SDS011;13760;52.588;13.406;2023-08-08T04:40:28;4.68;;;2.35;;
25962;SDS011;13760;52.588;13.406;2023-08-08T04:42:53;6.35;;;2.90;;
25962;SDS011;13760;52.588;13.406;2023-08-08T04:45:19;5.43;;;2.42;;
25962;SDS011;13760;52.588;13.406;2023-08-08T04:47:45;7.55;;;2.67;;
25962;SDS011;13760;52.588;13.406;2023-08-08T04:50:11;7.25;;;2.30;;
25962;SDS011;13760;52.588;13.406;2023-08-08T04:52:37;7.15;;;2.83;;
25962;SDS011;13760;52.588;13.406;2023-08-08T04:55:02;4.10;;;2.40;;
25962;SDS011;13760;52.588;13.406;2023-08-08T04:57:28;4.50;;;2.40;;
25962;SDS011;13760;52.588;13.406;2023-08-08T04:59:54;3.20;;;2.13;;
25962;SDS011;13760;52.588;13.406;2023-08-08T05:02:19;4.75;;;2.28;;
25962;SDS011;13760;52.588;13.406;2023-08-08T05:04:46;7.68;;;2.47;;
25962;SDS011;13760;52.588;13.406;2023-08-08T05:07:11;6.20;;;2.70;;
25962;SDS011;13760;52.588;13.406;2023-08-08T05:09:37;7.47;;;2.63;;
25962;SDS011;13760;52.588;13.406;2023-08-08T05:12:02;5.53;;;3.00;;
25962;SDS011;13760;52.588;13.406;2023-08-08T05:14:28;8.65;;;2.60;;
25962;SDS011;13760;52.588;13.406;2023-08-08T05:16:54;6.50;;;2.55;;
25962;SDS011;13760;52.588;13.406;2023-08-08T05:19:19;7.72;;;2.50;;
25962;SDS011;13760;52.588;13.406;2023-08-08T05:21:45;8.07;;;2.80;;
25962;SDS011;13760;52.588;13.406;2023-08-08T05:24:10;3.95;;;2.47;;
25962;SDS011;13760;52.588;13.406;2023-08-08T05:26:36;6.53;;;2.30;;
25962;SDS011;13760;52.588;13.406;2023-08-08T05:29:01;7.22;;;2.65;;
25962;SDS011;13760;52.588;13.406;2023-08-08T05:31:27;7.22;;;2.45;;
25962;SDS011;13760;52.588;13.406;2023-08-08T05:33:53;8.18;;;2.33;;
25962;SDS011;13760;52.588;13.406;2023-08-08T05:36:18;3.90;;;2.40;;
25962;SDS011;13760;52.588;13.406;2023-08-08T05:38:44;7.82;;;2.53;;
25962;SDS011;13760;52.588;13.406;2023-08-08T05:41:09;5.93;;;2.40;;
25962;SDS011;13760;52.588;13.406;2023-08-08T05:43:35;6.03;;;2.33;;
25962;SDS011;13760;52.588;13.406;2023-08-08T05:46:01;4.03;;;2.25;;
25962;SDS011;13760;52.588;13.406;2023-08-08T05:48:27;4.57;;;2.05;;
25962;SDS011;13760;52.588;13.406;2023-08-08T05:50:52;8.70;;;2.90;;
25962;SDS011;13760;52.588;13.406;2023-08-08T05:53:18;3.40;;;2.17;;
25962;SDS011;13760;52.588;13.406;2023-08-08T05:55:43;6.65;;;2.40;;
25962;SDS011;13760;52.588;13.406;2023-08-08T05:58:09;6.70;;;2.78;;
25962;SDS011;13760;52.588;13.406;2023-08-08T06:00:35;5.15;;;2.10;;
25962;SDS011;13760;52.588;13.406;2023-08-08T06:03:01;5.55;;;2.47;;
25962;SDS011;13760;52.588;13.406;2023-08-08T06:05:26;5.43;;;2.28;;
25962;SDS011;13760;52.588;13.406;2023-08-08T06:07:53;4.75;;;2.35;;
25962;SDS011;13760;52.588;13.406;2023-08-08T06:10:20;7.45;;;2.20;;
25962;SDS011;13760;52.588;13.406;2023-08-08T06:12:46;6.85;;;2.42;;
25962;SDS011;13760;52.588;13.406;2023-08-08T06:15:11;8.82;;;2.50;;
25962;SDS011;13760;52.588;13.406;2023-08-08T06:17:37;7.97;;;2.50;;
25962;SDS011;13760;52.588;13.406;2023-08-08T06:20:03;7.90;;;2.67;;
25962;SDS011;13760;52.588;13.406;2023-08-08T06:22:29;8.00;;;2.28;;
25962;SDS011;13760;52.588;13.406;2023-08-08T06:24:55;5.63;;;2.28;;
25962;SDS011;13760;52.588;13.406;2023-08-08T06:27:20;8.63;;;2.53;;
25962;SDS011;13760;52.588;13.406;2023-08-08T06:29:46;6.03;;;2.42;;
25962;SDS011;13760;52.588;13.406;2023-08-08T06:32:11;7.05;;;2.53;;
25962;SDS011;13760;52.588;13.406;2023-08-08T06:34:37;5.55;;;2.30;;
25962;SDS011;13760;52.588;13.406;2023-08-08T06:37:03;5.18;;;2.15;;
25962;SDS011;13760;52.588;13.406;2023-08-08T06:39:28;7.55;;;2.35;;
25962;SDS011;13760;52.588;13.406;2023-08-08T06:41:54;6.13;;;2.22;;
25962;SDS011;13760;52.588;13.406;2023-08-08T06:44:20;6.60;;;2.20;;
25962;SDS011;13760;52.588;13.406;2023-08-08T06:46:46;5.40;;;1.98;;
25962;SDS011;13760;52.588;13.406;2023-08-08T06:49:12;7.15;;;2.50;;
25962;SDS011;13760;52.588;13.406;2023-08-08T06:51:37;5.18;;;2.10;;
25962;SDS011;13760;52.588;13.406;2023-08-08T06:54:03;4.10;;;2.40;;
25962;SDS011;13760;52.588;13.406;2023-08-08T06:56:29;4.75;;;2.05;;
25962;SDS011;13760;52.588;13.406;2023-08-08T06:58:54;3.78;;;2.50;;
25962;SDS011;13760;52.588;13.406;2023-08-08T07:01:20;5.97;;;2.33;;
25962;SDS011;13760;52.588;13.406;2023-08-08T07:03:45;5.40;;;2.08;;
25962;SDS011;13760;52.588;13.406;2023-08-08T07:06:11;7.00;;;2.33;;
25962;SDS011;13760;52.588;13.406;2023-08-08T07:08:37;5.82;;;2.28;;
25962;SDS011;13760;52.588;13.406;2023-08-08T07:11:04;4.05;;;2.20;;
25962;SDS011;13760;52.588;13.406;2023-08-08T07:13:33;3.78;;;2.35;;
25962;SDS011;13760;52.588;13.406;2023-08-08T07:15:59;5.68;;;2.40;;
25962;SDS011;13760;52.588;13.406;2023-08-08T07:18:25;4.70;;;2.28;;
25962;SDS011;13760;52.588;13.406;2023-08-08T07:20:50;4.15;;;2.50;;
25962;SDS011;13760;52.588;13.406;2023-08-08T07:23:16;5.15;;;2.63;;
25962;SDS011;13760;52.588;13.406;2023-08-08T07:25:42;5.80;;;2.20;;
25962;SDS011;13760;52.588;13.406;2023-08-08T07:28:08;7.10;;;2.42;;
25962;SDS011;13760;52.588;13.406;2023-08-08T07:30:34;4.20;;;2.10;;
25962;SDS011;13760;52.588;13.406;2023-08-08T07:33:00;6.53;;;2.13;;
25962;SDS011;13760;52.588;13.406;2023-08-08T07:35:25;4.95;;;1.92;;
25962;SDS011;13760;52.588;13.406;2023-08-08T07:37:51;4.53;;;1.90;;
25962;SDS011;13760;52.588;13.406;2023-08-08T07:40:23;7.20;;;2.40;;
25962;SDS011;13760;52.588;13.406;2023-08-08T07:42:49;5.28;;;2.45;;
25962;SDS011;13760;52.588;13.406;2023-08-08T07:45:15;6.80;;;2.30;;
25962;SDS011;13760;52.588;13.406;2023-08-08T07:47:44;4.07;;;2.20;;
25962;SDS011;13760;52.588;13.406;2023-08-08T07:50:10;5.60;;;2.13;;
25962;SDS011;13760;52.588;13.406;2023-08-08T07:52:48;5.93;;;2.20;;
25962;SDS011;13760;52.588;13.406;2023-08-08T07:55:13;8.05;;;2.13;;
25962;SDS011;13760;52.588;13.406;2023-08-08T07:57:39;7.85;;;2.08;;
25962;SDS011;13760;52.588;13.406;2023-08-08T08:00:05;4.82;;;1.80;;
25962;SDS011;13760;52.588;13.406;2023-08-08T08:02:36;4.68;;;2.05;;
25962;SDS011;13760;52.588;13.406;2023-08-08T08:05:03;8.23;;;2.72;;
25962;SDS011;13760;52.588;13.406;2023-08-08T08:07:33;6.18;;;2.45;;
25962;SDS011;13760;52.588;13.406;2023-08-08T08:10:00;5.28;;;2.20;;
25962;SDS011;13760;52.588;13.406;2023-08-08T08:12:27;6.22;;;2.03;;
25962;SDS011;13760;52.588;13.406;2023-08-08T08:14:53;6.72;;;2.47;;
25962;SDS011;13760;52.588;13.406;2023-08-08T08:17:18;5.00;;;2.03;;
25962;SDS011;13760;52.588;13.406;2023-08-08T08:19:44;5.00;;;2.33;;
25962;SDS011;13760;52.588;13.406;2023-08-08T08:22:09;6.45;;;2.25;;
25962;SDS011;13760;52.588;13.406;2023-08-08T08:24:35;5.80;;;2.15;;
25962;SDS011;13760;52.588;13.406;2023-08-08T08:27:00;6.53;;;2.28;;
25962;SDS011;13760;52.588;13.406;2023-08-08T08:29:26;4.50;;;2.58;;
25962;SDS011;13760;52.588;13.406;2023-08-08T08:31:52;5.32;;;2.33;;
25962;SDS011;13760;52.588;13.406;2023-08-08T08:34:18;5.07;;;2.10;;
25962;SDS011;13760;52.588;13.406;2023-08-08T08:36:43;4.53;;;2.08;;
25962;SDS011;13760;52.588;13.406;2023-08-08T08:39:09;4.70;;;2.22;;
25962;SDS011;13760;52.588;13.406;2023-08-08T08:41:35;4.80;;;2.15;;
25962;SDS011;13760;52.588;13.406;2023-08-08T08:44:04;7.38;;;2.05;;
25962;SDS011;13760;52.588;13.406;2023-08-08T08:46:31;5.30;;;2.00;;
25962;SDS011;13760;52.588;13.406;2023-08-08T08:49:00;5.47;;;1.92;;
25962;SDS011;13760;52.588;13.406;2023-08-08T08:51:30;4.82;;;1.90;;
25962;SDS011;13760;52.588;13.406;2023-08-08T08:53:56;4.75;;;1.92;;
25962;SDS011;13760;52.588;13.406;2023-08-08T08:56:23;5.32;;;1.77;;
25962;SDS011;13760;52.588;13.406;2023-08-08T08:58:50;4.03;;;2.00;;
25962;SDS011;13760;52.588;13.406;2023-08-08T09:01:16;3.75;;;1.80;;
25962;SDS011;13760;52.588;13.406;2023-08-08T09:03:43;5.72;;;2.05;;
25962;SDS011;13760;52.588;13.406;2023-08-08T09:06:09;4.45;;;1.83;;
25962;SDS011;13760;52.588;13.406;2023-08-08T09:08:37;4.28;;;2.00;;
25962;SDS011;13760;52.588;13.406;2023-08-08T09:11:02;7.25;;;1.98;;
25962;SDS011;13760;52.588;13.406;2023-08-08T09:13:33;5.78;;;2.00;;
25962;SDS011;13760;52.588;13.406;2023-08-08T09:16:02;3.65;;;2.00;;
25962;SDS011;13760;52.588;13.406;2023-08-08T09:18:30;4.70;;;1.90;;
25962;SDS011;13760;52.588;13.406;2023-08-08T09:20:57;7.43;;;2.20;;
25962;SDS011;13760;52.588;13.406;2023-08-08T09:23:23;4.18;;;1.90;;
25962;SDS011;13760;52.588;13.406;2023-08-08T09:25:49;5.78;;;2.00;;
25962;SDS011;13760;52.588;13.406;2023-08-08T09:28:15;6.38;;;2.00;;
25962;SDS011;13760;52.588;13.406;2023-08-08T09:30:44;7.57;;;2.38;;
25962;SDS011;13760;52.588;13.406;2023-08-08T09:33:12;3.90;;;1.90;;
25962;SDS011;13760;52.588;13.406;2023-08-08T09:35:38;4.95;;;1.90;;
25962;SDS011;13760;52.588;13.406;2023-08-08T09:38:04;3.70;;;2.03;;
25962;SDS011;13760;52.588;13.406;2023-08-08T09:40:30;5.00;;;2.00;;
25962;SDS011;13760;52.588;13.406;2023-08-08T09:42:56;5.22;;;1.60;;
25962;SDS011;13760;52.588;13.406;2023-08-08T09:45:23;7.07;;;1.90;;
25962;SDS011;13760;52.588;13.406;2023-08-08T09:47:49;6.50;;;2.20;;
25962;SDS011;13760;52.588;13.406;2023-08-08T09:50:26;6.85;;;1.95;;
25962;SDS011;13760;52.588;13.406;2023-08-08T09:52:53;3.80;;;1.90;;
25962;SDS011;13760;52.588;13.406;2023-08-08T09:55:24;5.80;;;1.77;;
25962;SDS011;13760;52.588;13.406;2023-08-08T09:57:50;9.02;;;2.30;;
25962;SDS011;13760;52.588;13.406;2023-08-08T10:00:33;8.13;;;2.70;;
25962;SDS011;13760;52.588;13.406;2023-08-08T10:02:59;5.28;;;2.28;;
25962;SDS011;13760;52.588;13.406;2023-08-08T10:05:26;5.32;;;2.88;;
25962;SDS011;13760;52.588;13.406;2023-08-08T10:07:52;6.15;;;2.78;;
25962;SDS011;13760;52.588;13.406;2023-08-08T10:10:19;7.90;;;2.90;;
25962;SDS011;13760;52.588;13.406;2023-08-08T10:12:45;7.55;;;3.10;;
25962;SDS011;13760;52.588;13.406;2023-08-08T10:15:12;4.22;;;2.47;;
25962;SDS011;13760;52.588;13.406;2023-08-08T10:17:38;7.85;;;2.97;;
25962;SDS011;13760;52.588;13.406;2023-08-08T10:20:05;4.43;;;2.70;;
25962;SDS011;13760;52.588;13.406;2023-08-08T10:25:03;3.58;;;2.20;;
25962;SDS011;13760;52.588;13.406;2023-08-08T10:27:32;7.80;;;2.65;;
25962;SDS011;13760;52.588;13.406;2023-08-08T10:30:08;3.90;;;2.42;;
25962;SDS011;13760;52.588;13.406;2023-08-08T10:32:42;6.75;;;2.60;;
25962;SDS011;13760;52.588;13.406;2023-08-08T10:35:09;5.55;;;2.92;;
25962;SDS011;13760;52.588;13.406;2023-08-08T10:37:36;6.38;;;2.40;;
25962;SDS011;13760;52.588;13.406;2023-08-08T10:40:03;5.03;;;2.35;;
25962;SDS011;13760;52.588;13.406;2023-08-08T10:42:31;7.43;;;2.45;;
25962;SDS011;13760;52.588;13.406;2023-08-08T10:45:00;6.95;;;2.47;;
25962;SDS011;13760;52.588;13.406;2023-08-08T10:47:31;6.47;;;2.33;;
25962;SDS011;13760;52.588;13.406;2023-08-08T10:50:09;3.80;;;2.30;;
25962;SDS011;13760;52.588;13.406;2023-08-08T10:55:19;5.45;;;1.90;;
25962;SDS011;13760;52.588;13.406;2023-08-08T10:57:53;3.65;;;1.90;;
25962;SDS011;13760;52.588;13.406;2023-08-08T11:00:24;3.95;;;2.05;;
25962;SDS011;13760;52.588;13.406;2023-08-08T11:02:53;2.53;;;1.85;;
25962;SDS011;13760;52.588;13.406;2023-08-08T11:05:20;3.72;;;1.85;;
25962;SDS011;13760;52.588;13.406;2023-08-08T11:07:47;4.22;;;2.00;;
25962;SDS011;13760;52.588;13.406;2023-08-08T11:10:13;3.90;;;1.98;;
25962;SDS011;13760;52.588;13.406;2023-08-08T11:12:38;3.78;;;2.30;;
25962;SDS011;13760;52.588;13.406;2023-08-08T11:15:04;3.38;;;1.77;;
25962;SDS011;13760;52.588;13.406;2023-08-08T11:17:30;4.78;;;2.00;;
25962;SDS011;13760;52.588;13.406;2023-08-08T11:19:57;6.63;;;2.33;;
25962;SDS011;13760;52.588;13.406;2023-08-08T11:22:23;7.00;;;2.33;;
25962;SDS011;13760;52.588;13.406;2023-08-08T11:24:49;5.93;;;2.13;;
25962;SDS011;13760;52.588;13.406;2023-08-08T11:27:15;6.82;;;2.25;;
25962;SDS011;13760;52.588;13.406;2023-08-08T11:29:48;6.63;;;1.80;;
25962;SDS011;13760;52.588;13.406;2023-08-08T11:32:15;5.13;;;1.90;;
25962;SDS011;13760;52.588;13.406;2023-08-08T11:34:41;3.70;;;1.50;;
25962;SDS011;13760;52.588;13.406;2023-08-08T11:37:06;3.25;;;1.10;;
25962;SDS011;13760;52.588;13.406;2023-08-08T11:39:33;1.73;;;1.13;;
25962;SDS011;13760;52.588;13.406;2023-08-08T11:41:59;3.28;;;1.42;;
25962;SDS011;13760;52.588;13.406;2023-08-08T11:44:26;2.58;;;1.10;;
25962;SDS011;13760;52.588;13.406;2023-08-08T11:46:54;4.63;;;1.23;;
25962;SDS011;13760;52.588;13.406;2023-08-08T11:49:20;1.45;;;1.15;;
25962;SDS011;13760;52.588;13.406;2023-08-08T11:51:45;4.57;;;1.40;;
25962;SDS011;13760;52.588;13.406;2023-08-08T11:54:11;1.63;;;1.40;;
25962;SDS011;13760;52.588;13.406;2023-08-08T11:56:38;2.83;;;1.50;;
25962;SDS011;13760;52.588;13.406;2023-08-08T11:59:04;2.47;;;1.50;;
25962;SDS011;13760;52.588;13.406;2023-08-08T12:01:31;2.47;;;1.40;;
25962;SDS011;13760;52.588;13.406;2023-08-08T12:03:57;4.72;;;1.88;;
25962;SDS011;13760;52.588;13.406;2023-08-08T12:06:27;2.97;;;1.80;;
25962;SDS011;13760;52.588;13.406;2023-08-08T12:08:53;4.07;;;1.60;;
25962;SDS011;13760;52.588;13.406;2023-08-08T12:11:19;2.50;;;1.75;;
25962;SDS011;13760;52.588;13.406;2023-08-08T12:13:46;5.85;;;1.90;;
25962;SDS011;13760;52.588;13.406;2023-08-08T12:16:12;3.42;;;1.88;;
25962;SDS011;13760;52.588;13.406;2023-08-08T12:18:39;5.18;;;1.90;;
25962;SDS011;13760;52.588;13.406;2023-08-08T12:21:06;2.97;;;1.67;;
25962;SDS011;13760;52.588;13.406;2023-08-08T12:23:32;4.20;;;1.50;;
25962;SDS011;13760;52.588;13.406;2023-08-08T12:25:59;4.10;;;2.03;;
25962;SDS011;13760;52.588;13.406;2023-08-08T12:28:25;4.20;;;1.95;;
25962;SDS011;13760;52.588;13.406;2023-08-08T12:30:51;5.32;;;1.98;;
25962;SDS011;13760;52.588;13.406;2023-08-08T12:33:17;4.22;;;2.00;;
25962;SDS011;13760;52.588;13.406;2023-08-08T12:35:42;3.92;;;2.00;;
25962;SDS011;13760;52.588;13.406;2023-08-08T12:38:08;4.00;;;1.80;;
25962;SDS011;13760;52.588;13.406;2023-08-08T12:40:35;5.03;;;1.83;;
25962;SDS011;13760;52.588;13.406;2023-08-08T12:43:00;3.10;;;1.75;;
25962;SDS011;13760;52.588;13.406;2023-08-08T12:45:26;4.80;;;1.95;;
25962;SDS011;13760;52.588;13.406;2023-08-08T12:47:51;3.58;;;2.08;;
25962;SDS011;13760;52.588;13.406;2023-08-08T12:50:17;4.03;;;1.77;;
25962;SDS011;13760;52.588;13.406;2023-08-08T12:52:42;4.32;;;2.10;;
25962;SDS011;13760;52.588;13.406;2023-08-08T12:55:08;5.05;;;1.90;;
25962;SDS011;13760;52.588;13.406;2023-08-08T12:57:36;5.20;;;1.90;;
25962;SDS011;13760;52.588;13.406;2023-08-08T13:00:01;5.60;;;2.00;;
25962;SDS011;13760;52.588;13.406;2023-08-08T13:02:27;4.75;;;2.15;;
25962;SDS011;13760;52.588;13.406;2023-08-08T13:04:53;3.72;;;1.85;;
25962;SDS011;13760;52.588;13.406;2023-08-08T13:07:18;4.25;;;1.70;;
25962;SDS011;13760;52.588;13.406;2023-08-08T13:09:44;1.52;;;1.30;;
25962;SDS011;13760;52.588;13.406;2023-08-08T13:12:09;4.82;;;1.33;;
25962;SDS011;13760;52.588;13.406;2023-08-08T13:14:35;4.32;;;1.55;;
25962;SDS011;13760;52.588;13.406;2023-08-08T13:17:01;2.53;;;1.40;;
25962;SDS011;13760;52.588;13.406;2023-08-08T13:19:27;2.95;;;1.55;;
25962;SDS011;13760;52.588;13.406;2023-08-08T13:21:52;2.88;;;1.52;;
25962;SDS011;13760;52.588;13.406;2023-08-08T13:24:19;5.70;;;1.70;;
25962;SDS011;13760;52.588;13.406;2023-08-08T13:26:49;4.95;;;1.48;;
25962;SDS011;13760;52.588;13.406;2023-08-08T13:29:15;6.07;;;1.23;;
25962;SDS011;13760;52.588;13.406;2023-08-08T13:31:40;4.93;;;1.48;;
25962;SDS011;13760;52.588;13.406;2023-08-08T13:34:06;4.03;;;2.00;;
25962;SDS011;13760;52.588;13.406;2023-08-08T13:36:32;5.00;;;1.60;;
25962;SDS011;13760;52.588;13.406;2023-08-08T13:38:57;5.70;;;1.83;;
25962;SDS011;13760;52.588;13.406;2023-08-08T13:41:23;3.20;;;1.67;;
25962;SDS011;13760;52.588;13.406;2023-08-08T13:43:49;3.33;;;1.90;;
25962;SDS011;13760;52.588;13.406;2023-08-08T13:46:14;7.35;;;1.70;;
25962;SDS011;13760;52.588;13.406;2023-08-08T13:48:40;3.95;;;1.30;;
25962;SDS011;13760;52.588;13.406;2023-08-08T13:51:05;4.43;;;1.30;;
25962;SDS011;13760;52.588;13.406;2023-08-08T13:53:31;4.60;;;1.23;;
25962;SDS011;13760;52.588;13.406;2023-08-08T13:55:57;1.85;;;1.20;;
25962;SDS011;13760;52.588;13.406;2023-08-08T13:58:22;1.98;;;1.10;;
25962;SDS011;13760;52.588;13.406;2023-08-08T14:00:48;2.20;;;1.13;;
25962;SDS011;13760;52.588;13.406;2023-08-08T14:03:14;2.13;;;1.38;;
25962;SDS011;13760;52.588;13.406;2023-08-08T14:05:40;4.32;;;1.10;;
25962;SDS011;13760;52.588;13.406;2023-08-08T14:08:06;2.20;;;1.30;;
25962;SDS011;13760;52.588;13.406;2023-08-08T14:10:31;1.33;;;1.00;;
25962;SDS011;13760;52.588;13.406;2023-08-08T14:12:57;3.65;;;1.10;;
25962;SDS011;13760;52.588;13.406;2023-08-08T14:15:23;1.80;;;1.20;;
25962;SDS011;13760;52.588;13.406;2023-08-08T14:17:49;3.30;;;1.30;;
25962;SDS011;13760;52.588;13.406;2023-08-08T14:20:15;2.38;;;1.30;;
25962;SDS011;13760;52.588;13.406;2023-08-08T14:22:43;4.75;;;1.55;;
25962;SDS011;13760;52.588;13.406;2023-08-08T14:25:12;2.53;;;1.40;;
25962;SDS011;13760;52.588;13.406;2023-08-08T14:27:38;3.05;;;1.50;;
25962;SDS011;13760;52.588;13.406;2023-08-08T14:30:04;3.42;;;1.42;;
25962;SDS011;13760;52.588;13.406;2023-08-08T14:32:30;4.75;;;1.58;;